createdAt,value
2018-11-11T00:00:49.792Z,99770
2018-11-11T00:03:18.626Z,99766
2018-11-11T00:05:47.460Z,99760
2018-11-11T00:08:16.291Z,99764
2018-11-11T00:10:45.127Z,99767
2018-11-11T00:13:14.701Z,99773
2018-11-11T00:15:43.536Z,99776
2018-11-11T00:18:13.114Z,99771
2018-11-11T00:20:42.708Z,99769
2018-11-11T00:23:11.544Z,99783
2018-11-11T00:25:40.391Z,99784
2018-11-11T00:28:09.967Z,99778
2018-11-11T00:30:38.810Z,99774
2018-11-11T00:33:08.381Z,99773
2018-11-11T00:35:37.239Z,99768
2018-11-11T00:38:06.081Z,99771
2018-11-11T00:40:34.918Z,99780
2018-11-11T00:43:03.763Z,99772
2018-11-11T00:45:33.349Z,99765
2018-11-11T00:48:02.180Z,99778
2018-11-11T00:50:31.034Z,99766
2018-11-11T00:52:59.872Z,99771
2018-11-11T00:55:28.714Z,99764
2018-11-11T00:57:57.555Z,99761
2018-11-11T01:00:26.404Z,99763
2018-11-11T01:02:55.240Z,99774
2018-11-11T01:05:24.076Z,99777
2018-11-11T01:07:52.912Z,99784
2018-11-11T01:10:21.759Z,99776
2018-11-11T01:12:50.595Z,99781
2018-11-11T01:15:19.438Z,99782
2018-11-11T01:17:48.264Z,99782
2018-11-11T01:20:17.105Z,99798
2018-11-11T01:22:45.957Z,99808
2018-11-11T01:25:14.782Z,99808
2018-11-11T01:27:43.662Z,99811
2018-11-11T01:30:12.445Z,99808
2018-11-11T01:32:41.448Z,99820
2018-11-11T01:35:10.282Z,99810
2018-11-11T01:37:39.113Z,99823
2018-11-11T01:40:07.957Z,99819
2018-11-11T01:42:37.520Z,99809
2018-11-11T01:45:06.348Z,99809
2018-11-11T01:47:35.185Z,99821
2018-11-11T01:50:04.018Z,99799
2018-11-11T01:52:32.866Z,99799
2018-11-11T01:55:01.716Z,99810
2018-11-11T01:57:30.573Z,99805
2018-11-11T01:59:59.408Z,99806
2018-11-11T02:02:28.245Z,99804
2018-11-11T02:04:57.085Z,99806
2018-11-11T02:07:25.913Z,99806
2018-11-11T02:09:54.829Z,99808
2018-11-11T02:12:23.587Z,99801
2018-11-11T02:14:52.421Z,99797
2018-11-11T02:17:21.272Z,99791
2018-11-11T02:19:50.117Z,99796
2018-11-11T02:22:18.965Z,99790
2018-11-11T02:24:47.810Z,99797
2018-11-11T02:27:16.653Z,99796
2018-11-11T02:29:46.235Z,99803
2018-11-11T02:32:15.089Z,99801
2018-11-11T02:34:43.928Z,99805
2018-11-11T02:37:13.512Z,99803
2018-11-11T02:39:42.344Z,99796
2018-11-11T02:42:11.169Z,99791
2018-11-11T02:44:40.016Z,99798
2018-11-11T02:47:08.857Z,99786
2018-11-11T02:49:37.688Z,99781
2018-11-11T02:52:06.532Z,99783
2018-11-11T02:54:35.360Z,99784
2018-11-11T02:57:04.200Z,99783
2018-11-11T02:59:33.045Z,99790
2018-11-11T03:02:02.693Z,99790
2018-11-11T03:04:31.533Z,99791
2018-11-11T03:07:00.315Z,99780
2018-11-11T03:09:29.152Z,99773
2018-11-11T03:11:58.006Z,99782
2018-11-11T03:14:27.586Z,99779
2018-11-11T03:16:56.438Z,99782
2018-11-11T03:19:25.305Z,99769
2018-11-11T03:21:54.154Z,99778
2018-11-11T03:24:22.979Z,99775
2018-11-11T03:26:51.814Z,99768
2018-11-11T03:29:20.647Z,99766
2018-11-11T03:31:50.219Z,99761
2018-11-11T03:34:19.056Z,99766
2018-11-11T03:36:47.895Z,99766
2018-11-11T03:39:16.733Z,99775
2018-11-11T03:41:45.578Z,99774
2018-11-11T03:44:14.411Z,99787
2018-11-11T03:46:43.240Z,99774
2018-11-11T03:49:12.085Z,99774
2018-11-11T03:51:40.931Z,99777
2018-11-11T03:54:09.771Z,99788
2018-11-11T03:56:38.614Z,99794
2018-11-11T03:59:08.046Z,99784
2018-11-11T04:01:36.890Z,99763
2018-11-11T04:04:05.722Z,99755
2018-11-11T04:06:34.567Z,99756
2018-11-11T04:09:03.414Z,99752
2018-11-11T04:11:32.254Z,99758
2018-11-11T04:14:01.078Z,99747
2018-11-11T04:16:30.662Z,99746
2018-11-11T04:19:00.107Z,99742
2018-11-11T04:21:28.936Z,99744
2018-11-11T04:23:57.864Z,99742
2018-11-11T04:26:26.630Z,99736
2018-11-11T04:28:55.463Z,99733
2018-11-11T04:31:24.288Z,99737
2018-11-11T04:33:53.124Z,99736
2018-11-11T04:36:22.712Z,99726
2018-11-11T04:38:51.573Z,99726
2018-11-11T04:41:20.820Z,99728
2018-11-11T04:43:49.653Z,99737
2018-11-11T04:46:18.617Z,99733
2018-11-11T04:48:48.061Z,99735
2018-11-11T04:51:16.887Z,99736
2018-11-11T04:53:46.464Z,99753
2018-11-11T04:56:15.294Z,99753
2018-11-11T04:58:44.125Z,99754
2018-11-11T05:01:13.024Z,99752
2018-11-11T05:03:41.809Z,99751
2018-11-11T05:08:39.486Z,99751
2018-11-11T05:11:08.321Z,99752
2018-11-11T05:13:37.161Z,99751
2018-11-11T05:16:05.996Z,99756
2018-11-11T05:21:04.408Z,99770
2018-11-11T05:23:33.246Z,99769
2018-11-11T05:28:30.940Z,99770
2018-11-11T05:30:59.784Z,99779
2018-11-11T05:33:28.612Z,99782
2018-11-11T05:35:57.457Z,99798
2018-11-11T05:38:26.297Z,99798
2018-11-11T05:40:55.138Z,99802
2018-11-11T05:43:23.984Z,99802
2018-11-11T05:45:52.827Z,99805
2018-11-11T05:48:21.664Z,99821
2018-11-11T05:50:51.820Z,99831
2018-11-11T05:53:20.658Z,99849
2018-11-11T05:55:49.484Z,99859
2018-11-11T05:58:18.342Z,99860
2018-11-11T06:00:47.931Z,99859
2018-11-11T06:03:16.789Z,99871
2018-11-11T06:05:45.625Z,99891
2018-11-11T06:08:14.487Z,99908
2018-11-11T06:10:43.317Z,99912
2018-11-11T06:13:12.906Z,99914
2018-11-11T06:15:42.486Z,99922
2018-11-11T06:18:11.322Z,99918
2018-11-11T06:20:40.907Z,99914
2018-11-11T06:23:09.749Z,99932
2018-11-11T06:25:38.594Z,99924
2018-11-11T06:28:07.445Z,99930
2018-11-11T06:30:36.285Z,99932
2018-11-11T06:33:05.861Z,99928
2018-11-11T06:35:34.706Z,99923
2018-11-11T06:38:03.536Z,99937
2018-11-11T06:40:32.371Z,99932
2018-11-11T06:43:01.205Z,99931
2018-11-11T06:45:30.036Z,99931
2018-11-11T06:47:59.626Z,99914
2018-11-11T06:50:28.491Z,99906
2018-11-11T06:52:57.328Z,99904
2018-11-11T06:55:26.185Z,99900
2018-11-11T06:57:55.035Z,99897
2018-11-11T07:00:23.867Z,99911
2018-11-11T07:02:52.706Z,99905
2018-11-11T07:05:21.543Z,99913
2018-11-11T07:07:50.392Z,99911
2018-11-11T07:10:19.241Z,99916
2018-11-11T07:12:48.088Z,99928
2018-11-11T07:15:16.918Z,99929
2018-11-11T07:17:46.493Z,99933
2018-11-11T07:20:15.327Z,99934
2018-11-11T07:22:44.164Z,99936
2018-11-11T07:25:12.997Z,99935
2018-11-11T07:27:42.573Z,99934
2018-11-11T07:30:11.405Z,99938
2018-11-11T07:32:40.258Z,99946
2018-11-11T07:35:09.101Z,99939
2018-11-11T07:37:37.936Z,99947
2018-11-11T07:40:06.777Z,99949
2018-11-11T07:42:35.623Z,99953
2018-11-11T07:45:05.221Z,99953
2018-11-11T07:47:34.052Z,99954
2018-11-11T07:50:02.882Z,99956
2018-11-11T07:52:31.715Z,99959
2018-11-11T07:55:00.564Z,99954
2018-11-11T07:57:29.386Z,99965
2018-11-11T07:59:58.228Z,99972
2018-11-11T08:02:27.057Z,99973
2018-11-11T08:04:56.637Z,99985
2018-11-11T08:07:25.468Z,99993
2018-11-11T08:09:54.295Z,99998
2018-11-11T08:12:23.121Z,99998
2018-11-11T08:14:51.974Z,99999
2018-11-11T08:17:20.811Z,99997
2018-11-11T08:19:50.385Z,100004
2018-11-11T08:22:19.236Z,100012
2018-11-11T08:24:48.083Z,100011
2018-11-11T08:27:16.915Z,100020
2018-11-11T08:29:45.772Z,100019
2018-11-11T08:32:14.599Z,100019
2018-11-11T08:34:44.136Z,100020
2018-11-11T08:37:12.968Z,100031
2018-11-11T08:39:41.808Z,100024
2018-11-11T08:42:10.638Z,100038
2018-11-11T08:44:39.488Z,100044
2018-11-11T08:47:08.324Z,100048
2018-11-11T08:49:37.214Z,100050
2018-11-11T08:52:06.054Z,100048
2018-11-11T08:54:34.877Z,100052
2018-11-11T08:57:04.451Z,100049
2018-11-11T08:59:33.286Z,100056
2018-11-11T09:02:02.119Z,100067
2018-11-11T09:04:30.977Z,100076
2018-11-11T09:06:59.825Z,100070
2018-11-11T09:09:28.664Z,100065
2018-11-11T09:11:57.497Z,100078
2018-11-11T09:14:26.917Z,100077
2018-11-11T09:16:55.744Z,100073
2018-11-11T09:19:24.590Z,100077
2018-11-11T09:21:53.462Z,100077
2018-11-11T09:24:22.305Z,100079
2018-11-11T09:26:51.148Z,100079
2018-11-11T09:29:20.031Z,100085
2018-11-11T09:31:48.832Z,100085
2018-11-11T09:34:17.672Z,100070
2018-11-11T09:36:46.503Z,100078
2018-11-11T09:39:15.426Z,100081
2018-11-11T09:41:44.197Z,100082
2018-11-11T09:44:13.773Z,100082
2018-11-11T09:46:42.611Z,100082
2018-11-11T09:49:11.452Z,100062
2018-11-11T09:51:40.280Z,100076
2018-11-11T09:54:09.932Z,100069
2018-11-11T09:56:38.715Z,100066
2018-11-11T09:59:07.535Z,100067
2018-11-11T10:01:36.370Z,100067
2018-11-11T10:04:05.204Z,100064
2018-11-11T10:06:34.124Z,100067
2018-11-11T10:09:02.874Z,100059
2018-11-11T10:11:31.733Z,100050
2018-11-11T10:14:01.313Z,100051
2018-11-11T10:16:30.156Z,100055
2018-11-11T10:18:58.983Z,100057
2018-11-11T10:21:28.581Z,100051
2018-11-11T10:23:58.167Z,100039
2018-11-11T10:26:27.005Z,100036
2018-11-11T10:28:55.856Z,100035
2018-11-11T10:31:24.685Z,100031
2018-11-11T10:33:53.519Z,100029
2018-11-11T10:36:22.354Z,100030
2018-11-11T10:38:51.188Z,100032
2018-11-11T10:41:20.019Z,100034
2018-11-11T10:43:49.596Z,100029
2018-11-11T10:46:18.441Z,100023
2018-11-11T10:48:47.282Z,100028
2018-11-11T10:51:16.110Z,100037
2018-11-11T10:53:44.942Z,100036
2018-11-11T10:56:13.770Z,100030
2018-11-11T10:58:43.347Z,100024
2018-11-11T11:01:12.186Z,100027
2018-11-11T11:03:41.021Z,100035
2018-11-11T11:06:10.677Z,100036
2018-11-11T11:08:39.455Z,100040
2018-11-11T11:11:09.079Z,100037
2018-11-11T11:13:39.586Z,100031
2018-11-11T11:16:09.145Z,100047
2018-11-11T11:18:38.442Z,100046
2018-11-11T11:21:07.285Z,100042
2018-11-11T11:23:36.124Z,100042
2018-11-11T11:26:04.966Z,100051
2018-11-11T11:28:34.538Z,100042
2018-11-11T11:31:03.378Z,100044
2018-11-11T11:33:32.214Z,100044
2018-11-11T11:36:01.048Z,100047
2018-11-11T11:38:29.884Z,100042
2018-11-11T11:40:58.737Z,100051
2018-11-11T11:43:27.580Z,100038
2018-11-11T11:45:56.418Z,100041
2018-11-11T11:48:25.253Z,100047
2018-11-11T11:50:54.086Z,100046
2018-11-11T11:53:22.935Z,100052
2018-11-11T11:55:51.774Z,100060
2018-11-11T11:58:20.605Z,100056
2018-11-11T12:00:49.463Z,100060
2018-11-11T12:03:18.295Z,100073
2018-11-11T12:05:47.867Z,100061
2018-11-11T12:08:16.710Z,100061
2018-11-11T12:10:45.545Z,100069
2018-11-11T12:13:14.380Z,100073
2018-11-11T12:15:43.221Z,100077
2018-11-11T12:18:12.057Z,100086
2018-11-11T12:20:40.917Z,100082
2018-11-11T12:23:09.813Z,100077
2018-11-11T12:25:38.590Z,100074
2018-11-11T12:28:07.417Z,100083
2018-11-11T12:30:37.027Z,100079
2018-11-11T12:33:05.830Z,100084
2018-11-11T12:35:34.666Z,100086
2018-11-11T12:38:03.501Z,100097
2018-11-11T12:40:32.355Z,100098
2018-11-11T12:43:01.207Z,100091
2018-11-11T12:45:30.043Z,100095
2018-11-11T12:47:59.669Z,100095
2018-11-11T12:50:29.414Z,100103
2018-11-11T12:52:58.058Z,100096
2018-11-11T12:55:27.713Z,100095
2018-11-11T12:57:56.495Z,100096
2018-11-11T13:00:25.337Z,100081
2018-11-11T13:02:54.915Z,100090
2018-11-11T13:05:23.743Z,100094
2018-11-11T13:07:52.599Z,100101
2018-11-11T13:10:21.418Z,100096
2018-11-11T13:12:50.995Z,100100
2018-11-11T13:15:19.844Z,100094
2018-11-11T13:17:48.668Z,100088
2018-11-11T13:20:17.522Z,100087
2018-11-11T13:22:46.467Z,100079
2018-11-11T13:25:15.185Z,100084
2018-11-11T13:27:44.742Z,100077
2018-11-11T13:30:13.583Z,100062
2018-11-11T13:32:42.417Z,100082
2018-11-11T13:35:11.256Z,100070
2018-11-11T13:37:40.091Z,100062
2018-11-11T13:40:08.911Z,100060
2018-11-11T13:42:37.743Z,100062
2018-11-11T13:45:06.576Z,100065
2018-11-11T13:47:35.434Z,100064
2018-11-11T13:50:04.261Z,100068
2018-11-11T13:52:33.837Z,100069
2018-11-11T13:55:02.675Z,100062
2018-11-11T13:57:31.508Z,100060
2018-11-11T14:00:00.378Z,100065
2018-11-11T14:02:29.948Z,100069
2018-11-11T14:04:59.507Z,100076
2018-11-11T14:07:28.335Z,100068
2018-11-11T14:09:57.911Z,100069
2018-11-11T14:12:26.748Z,100063
2018-11-11T14:14:55.580Z,100074
2018-11-11T14:17:24.417Z,100058
2018-11-11T14:19:54.055Z,100050
2018-11-11T14:22:23.605Z,100045
2018-11-11T14:24:52.657Z,100059
2018-11-11T14:27:21.312Z,100064
2018-11-11T14:29:50.888Z,100054
2018-11-11T14:32:19.834Z,100055
2018-11-11T14:34:49.060Z,100057
2018-11-11T14:37:17.912Z,100049
2018-11-11T14:39:46.753Z,100048
2018-11-11T14:42:15.575Z,100046
2018-11-11T14:44:44.415Z,100042
2018-11-11T14:47:13.259Z,100044
2018-11-11T14:49:42.083Z,100050
2018-11-11T14:52:11.000Z,100053
2018-11-11T14:54:40.512Z,100048
2018-11-11T14:57:09.344Z,100051
2018-11-11T14:59:38.204Z,100040
2018-11-11T15:02:07.792Z,100040
2018-11-11T15:04:36.625Z,100039
2018-11-11T15:07:05.452Z,100042
2018-11-11T15:09:34.290Z,100041
2018-11-11T15:12:03.125Z,100041
2018-11-11T15:14:31.962Z,100038
2018-11-11T15:17:01.539Z,100035
2018-11-11T15:19:31.094Z,100044
2018-11-11T15:21:59.819Z,100040
2018-11-11T15:24:28.661Z,100034
2018-11-11T15:26:58.219Z,100034
2018-11-11T15:29:27.076Z,100033
2018-11-11T15:31:55.911Z,100029
2018-11-11T15:34:24.745Z,100034
2018-11-11T15:36:53.586Z,100038
2018-11-11T15:39:22.430Z,100042
2018-11-11T15:41:51.251Z,100044
2018-11-11T15:44:20.074Z,100039
2018-11-11T15:46:49.653Z,100046
2018-11-11T15:49:18.501Z,100052
2018-11-11T15:51:47.332Z,100045
2018-11-11T15:54:16.164Z,100046
2018-11-11T15:56:44.993Z,100042
2018-11-11T15:59:13.900Z,100046
2018-11-11T16:01:42.666Z,100055
2018-11-11T16:04:11.498Z,100063
2018-11-11T16:06:41.081Z,100068
2018-11-11T16:09:09.917Z,100070
2018-11-11T16:11:38.754Z,100084
2018-11-11T16:14:07.816Z,100093
2018-11-11T16:16:36.448Z,100091
2018-11-11T16:19:05.289Z,100087
2018-11-11T16:21:34.124Z,100101
2018-11-11T16:24:03.577Z,100095
2018-11-11T16:26:32.425Z,100098
2018-11-11T16:29:01.278Z,100106
2018-11-11T16:31:30.133Z,100108
2018-11-11T16:33:59.692Z,100101
2018-11-11T16:36:28.613Z,100112
2018-11-11T16:38:57.371Z,100117
2018-11-11T16:41:26.410Z,100126
2018-11-11T16:43:55.096Z,100129
2018-11-11T16:46:24.685Z,100127
2018-11-11T16:48:53.514Z,100142
2018-11-11T16:51:22.369Z,100143
2018-11-11T16:53:51.296Z,100143
2018-11-11T16:56:20.060Z,100143
2018-11-11T16:58:48.903Z,100151
2018-11-11T17:01:17.756Z,100148
2018-11-11T17:03:46.596Z,100148
2018-11-11T17:06:15.430Z,100145
2018-11-11T17:08:44.292Z,100143
2018-11-11T17:11:13.176Z,100145
2018-11-11T17:13:41.970Z,100132
2018-11-11T17:16:10.808Z,100131
2018-11-11T17:18:39.645Z,100131
2018-11-11T17:21:09.310Z,100136
2018-11-11T17:23:38.117Z,100134
2018-11-11T17:26:06.962Z,100134
2018-11-11T17:28:35.819Z,100124
2018-11-11T17:31:05.454Z,100143
2018-11-11T17:33:34.244Z,100133
2018-11-11T17:36:03.142Z,100134
2018-11-11T17:38:32.686Z,100132
2018-11-11T17:41:01.516Z,100145
2018-11-11T17:43:30.379Z,100143
2018-11-11T17:45:59.215Z,100152
2018-11-11T17:48:28.103Z,100149
2018-11-11T17:50:56.920Z,100154
2018-11-11T17:53:25.746Z,100151
2018-11-11T17:55:54.659Z,100151
2018-11-11T17:58:23.451Z,100147
2018-11-11T18:00:52.305Z,100144
2018-11-11T18:03:21.182Z,100148
2018-11-11T18:05:49.953Z,100152
2018-11-11T18:08:18.781Z,100146
2018-11-11T18:10:47.784Z,100138
2018-11-11T18:13:17.248Z,100141
2018-11-11T18:15:46.081Z,100146
2018-11-11T18:18:14.929Z,100146
2018-11-11T18:20:44.559Z,100134
2018-11-11T18:23:13.368Z,100133
2018-11-11T18:25:42.236Z,100141
2018-11-11T18:28:11.922Z,100148
2018-11-11T18:30:41.424Z,100144
2018-11-11T18:33:10.858Z,100149
2018-11-11T18:35:39.704Z,100154
2018-11-11T18:38:08.533Z,100155
2018-11-11T18:40:37.368Z,100154
2018-11-11T18:43:06.233Z,100161
2018-11-11T18:45:35.107Z,100174
2018-11-11T18:48:03.901Z,100173
2018-11-11T18:50:33.736Z,100171
2018-11-11T18:53:02.593Z,100175
2018-11-11T18:55:31.509Z,100181
2018-11-11T18:58:00.300Z,100183
2018-11-11T19:00:29.155Z,100187
2018-11-11T19:02:58.744Z,100181
2018-11-11T19:05:27.593Z,100175
2018-11-11T19:07:56.417Z,100185
2018-11-11T19:10:26.084Z,100183
2018-11-11T19:12:54.870Z,100184
2018-11-11T19:15:23.707Z,100179
2018-11-11T19:17:52.564Z,100179
2018-11-11T19:20:21.410Z,100184
2018-11-11T19:22:50.273Z,100183
2018-11-11T19:25:19.194Z,100181
2018-11-11T19:27:48.029Z,100182
2018-11-11T19:30:16.822Z,100173
2018-11-11T19:32:45.633Z,100173
2018-11-11T19:35:14.520Z,100149
2018-11-11T19:37:43.380Z,100171
2018-11-11T19:40:12.221Z,100168
2018-11-11T19:42:41.070Z,100165
2018-11-11T19:45:09.932Z,100172
2018-11-11T19:47:38.769Z,100175
2018-11-11T19:50:07.664Z,100168
2018-11-11T19:52:37.248Z,100156
2018-11-11T19:55:06.115Z,100160
2018-11-11T19:57:34.939Z,100170
2018-11-11T20:00:04.419Z,100185
2018-11-11T20:02:33.286Z,100182
2018-11-11T20:05:02.130Z,100185
2018-11-11T20:07:30.965Z,100192
2018-11-11T20:09:59.805Z,100200
2018-11-11T20:12:29.394Z,100202
2018-11-11T20:14:58.258Z,100218
2018-11-11T20:17:27.102Z,100231
2018-11-11T20:19:55.934Z,100218
2018-11-11T20:22:24.773Z,100232
2018-11-11T20:24:53.597Z,100230
2018-11-11T20:27:22.444Z,100234
2018-11-11T20:29:51.289Z,100224
2018-11-11T20:32:20.133Z,100239
2018-11-11T20:34:48.986Z,100244
2018-11-11T20:37:17.913Z,100257
2018-11-11T20:39:47.532Z,100266
2018-11-11T20:42:16.331Z,100271
2018-11-11T20:44:45.171Z,100260
2018-11-11T20:47:14.748Z,100256
2018-11-11T20:49:43.624Z,100243
2018-11-11T20:52:13.166Z,100236
2018-11-11T20:54:41.991Z,100237
2018-11-11T20:57:11.587Z,100231
2018-11-11T20:59:41.161Z,100235
2018-11-11T21:02:09.995Z,100233
2018-11-11T21:04:38.837Z,100244
2018-11-11T21:07:07.680Z,100237
2018-11-11T21:09:36.518Z,100247
2018-11-11T21:12:05.366Z,100247
2018-11-11T21:14:34.196Z,100248
2018-11-11T21:17:03.052Z,100259
2018-11-11T21:19:32.705Z,100261
2018-11-11T21:22:01.465Z,100257
2018-11-11T21:24:30.418Z,100273
2018-11-11T21:26:59.812Z,100280
2018-11-11T21:29:28.649Z,100292
2018-11-11T21:31:57.532Z,100289
2018-11-11T21:34:27.071Z,100298
2018-11-11T21:36:55.925Z,100304
2018-11-11T21:39:24.746Z,100311
2018-11-11T21:41:54.318Z,100310
2018-11-11T21:44:23.157Z,100317
2018-11-11T21:46:52.765Z,100316
2018-11-11T21:49:21.613Z,100319
2018-11-11T21:51:50.464Z,100314
2018-11-11T21:54:19.304Z,100303
2018-11-11T21:56:48.141Z,100299
2018-11-11T21:59:17.013Z,100289
2018-11-11T22:01:46.797Z,100291
2018-11-11T22:04:27.115Z,100293
2018-11-11T22:06:55.975Z,100297
2018-11-11T22:09:24.800Z,100303
2018-11-11T22:11:53.635Z,100301
2018-11-11T22:14:22.484Z,100301
2018-11-11T22:16:51.312Z,100298
2018-11-11T22:19:20.145Z,100310
2018-11-11T22:21:48.973Z,100310
2018-11-11T22:24:18.592Z,100326
2018-11-11T22:26:47.421Z,100325
2018-11-11T22:29:16.251Z,100339
2018-11-11T22:31:45.079Z,100337
2018-11-11T22:34:14.671Z,100322
2018-11-11T22:36:43.550Z,100317
2018-11-11T22:39:12.385Z,100318
2018-11-11T22:41:41.229Z,100337
2018-11-11T22:44:10.083Z,100342
2018-11-11T22:46:38.916Z,100339
2018-11-11T22:49:07.744Z,100341
2018-11-11T22:51:36.588Z,100345
2018-11-11T22:54:05.425Z,100346
2018-11-11T22:56:34.263Z,100350
2018-11-11T22:59:03.093Z,100350
2018-11-11T23:01:31.928Z,100343
2018-11-11T23:04:00.765Z,100349
2018-11-11T23:06:29.608Z,100352
2018-11-11T23:08:58.442Z,100344
2018-11-11T23:11:27.284Z,100349
2018-11-11T23:13:56.115Z,100340
2018-11-11T23:16:25.704Z,100344
2018-11-11T23:18:54.544Z,100334
2018-11-11T23:21:23.379Z,100341
2018-11-11T23:23:52.217Z,100340
2018-11-11T23:26:21.053Z,100335
2018-11-11T23:28:49.879Z,100339
2018-11-11T23:31:18.712Z,100347
2018-11-11T23:33:47.541Z,100346
2018-11-11T23:36:17.118Z,100355
2018-11-11T23:38:45.938Z,100353
2018-11-11T23:41:15.516Z,100348
2018-11-11T23:43:44.339Z,100355
2018-11-11T23:46:13.908Z,100349
2018-11-11T23:48:42.743Z,100350
2018-11-11T23:51:11.576Z,100348
2018-11-11T23:53:40.403Z,100350
2018-11-11T23:56:09.991Z,100349
2018-11-11T23:58:38.827Z,100350
